Time;durP1;ratioP1;P1;durP2;ratioP2;P2;SDS_P1;SDS_P2;PMS_P1;PMS_P2;Temp;Humidity;BMP_temperature;BMP_pressure;BME280_temperature;BME280_humidity;BME280_pressure;Samples;Min_cycle;Max_cycle;Signal;HPM_P1;HPM_P2
2024/03/07 00:02:23;;;;;;;0.00;0.00;;;23.20;37.10;;;;;;5067514;28;20203;-40
2024/03/07 00:04:54;;;;;;;0.00;0.00;;;23.30;36.80;;;;;;5047230;28;20199;-40
2024/03/07 00:07:24;;;;;;;0.00;0.00;;;23.30;36.60;;;;;;5046658;28;20237;-45
2024/03/07 00:09:58;;;;;;;0.00;0.00;;;23.40;36.50;;;;;;5046335;28;20218;-43
2024/03/07 00:12:29;;;;;;;0.00;0.00;;;23.50;36.50;;;;;;5046629;28;20200;-41
2024/03/07 00:15:00;;;;;;;0.00;0.00;;;23.50;36.30;;;;;;5053292;28;20210;-41
2024/03/07 00:17:31;;;;;;;0.00;0.00;;;23.60;36.00;;;;;;5066792;28;20217;-44
2024/03/07 00:20:02;;;;;;;0.00;0.00;;;23.60;35.80;;;;;;5067341;28;20715;-43
2024/03/07 00:22:33;;;;;;;0.00;0.00;;;23.70;35.80;;;;;;5067505;28;20198;-41
2024/03/07 00:25:06;;;;;;;0.00;0.00;;;23.70;35.60;;;;;;5062993;28;20465;-41
2024/03/07 00:27:38;;;;;;;0.10;0.10;;;23.80;35.50;;;;;;5058001;28;20230;-40
2024/03/07 00:30:09;;;;;;;0.00;0.00;;;23.80;35.30;;;;;;5066046;28;20206;-41
2024/03/07 00:32:40;;;;;;;0.00;0.00;;;23.90;35.00;;;;;;5066782;28;20202;-41
2024/03/07 00:35:11;;;;;;;0.00;0.00;;;24.00;34.80;;;;;;5066848;28;20207;-42
2024/03/07 00:37:42;;;;;;;0.00;0.00;;;24.00;34.60;;;;;;5067988;28;20195;-41
2024/03/07 00:40:15;;;;;;;0.00;0.00;;;24.10;34.50;;;;;;5066983;28;20219;-41
2024/03/07 00:42:46;;;;;;;0.00;0.00;;;24.20;34.40;;;;;;5066708;28;20199;-41
2024/03/07 00:45:16;;;;;;;0.00;0.00;;;24.20;34.40;;;;;;5066333;28;20198;-41
2024/03/07 00:47:48;;;;;;;0.00;0.00;;;24.30;34.20;;;;;;5067096;28;20218;-41
2024/03/07 00:50:18;;;;;;;0.00;0.00;;;24.30;34.00;;;;;;5066378;28;20280;-41
2024/03/07 00:52:49;;;;;;;0.00;0.00;;;24.40;33.80;;;;;;5066414;28;20615;-41
2024/03/07 00:55:22;;;;;;;0.00;0.00;;;24.50;33.50;;;;;;5070290;28;20214;-42
2024/03/07 00:57:53;;;;;;;0.00;0.00;;;24.50;33.30;;;;;;5069903;28;20214;-41
2024/03/07 01:00:24;;;;;;;0.00;0.00;;;24.60;33.20;;;;;;5070437;28;20222;-41
2024/03/07 01:02:55;;;;;;;0.00;0.00;;;24.60;33.10;;;;;;5069934;28;20199;-42
2024/03/07 01:05:25;;;;;;;0.00;0.00;;;24.70;33.00;;;;;;5069525;28;20205;-42
2024/03/07 01:07:56;;;;;;;0.00;0.00;;;24.70;32.90;;;;;;5069968;28;20988;-41
2024/03/07 01:10:28;;;;;;;0.00;0.00;;;24.80;33.00;;;;;;5069770;28;20301;-41
2024/03/07 01:13:01;;;;;;;0.00;0.00;;;24.90;32.90;;;;;;5069669;28;20207;-41
2024/03/07 01:15:32;;;;;;;0.00;0.00;;;24.90;32.80;;;;;;5070152;28;20203;-41
2024/03/07 01:18:03;;;;;;;0.00;0.00;;;24.90;32.80;;;;;;5069754;28;20211;-42
2024/03/07 01:20:33;;;;;;;0.00;0.00;;;25.00;32.80;;;;;;5069454;28;20233;-41
2024/03/07 01:23:04;;;;;;;0.00;0.00;;;25.00;32.70;;;;;;5070539;28;20195;-41
2024/03/07 01:25:37;;;;;;;0.00;0.00;;;25.10;32.60;;;;;;5073689;28;20206;-41
2024/03/07 01:28:08;;;;;;;0.00;0.00;;;25.10;32.70;;;;;;5073461;28;20247;-42
2024/03/07 01:30:38;;;;;;;0.00;0.00;;;25.10;32.60;;;;;;5071533;28;20260;-41
2024/03/07 01:33:09;;;;;;;0.00;0.00;;;25.20;32.60;;;;;;5069431;28;20206;-42
2024/03/07 01:35:39;;;;;;;0.00;0.00;;;25.20;32.60;;;;;;5070192;28;20199;-41
2024/03/07 01:38:11;;;;;;;0.00;0.00;;;25.30;32.60;;;;;;5070412;28;20285;-41
2024/03/07 01:40:43;;;;;;;0.00;0.00;;;25.30;32.50;;;;;;5069609;28;20222;-42
2024/03/07 01:43:14;;;;;;;0.00;0.00;;;25.30;32.20;;;;;;5069599;28;20210;-41
2024/03/07 01:45:45;;;;;;;0.00;0.00;;;25.30;32.20;;;;;;5068863;28;20576;-41
2024/03/07 01:48:20;;;;;;;0.00;0.00;;;25.40;32.90;;;;;;5070068;28;20229;-41
2024/03/07 01:50:51;;;;;;;0.00;0.00;;;25.40;32.30;;;;;;5069969;28;20226;-41
2024/03/07 01:53:22;;;;;;;0.00;0.00;;;25.50;32.50;;;;;;5069267;28;20195;-41
2024/03/07 01:55:54;;;;;;;0.00;0.00;;;25.50;32.50;;;;;;5066392;28;20195;-43
2024/03/07 01:58:26;;;;;;;0.00;0.00;;;25.50;32.50;;;;;;5069218;28;20285;-41
2024/03/07 02:00:58;;;;;;;0.00;0.00;;;25.60;32.70;;;;;;5068925;28;20223;-42
2024/03/07 02:03:28;;;;;;;0.00;0.00;;;25.60;32.80;;;;;;5066039;28;20195;-41
2024/03/07 02:06:00;;;;;;;0.00;0.00;;;25.60;33.00;;;;;;5068691;28;20211;-41
2024/03/07 02:08:31;;;;;;;0.00;0.00;;;25.60;33.00;;;;;;5065903;28;20623;-40
2024/03/07 02:11:04;;;;;;;0.00;0.00;;;25.60;33.20;;;;;;5068851;28;20378;-41
2024/03/07 02:13:34;;;;;;;0.00;0.00;;;25.60;33.30;;;;;;5068480;28;20191;-41
2024/03/07 02:16:05;;;;;;;0.00;0.00;;;25.70;33.30;;;;;;5069379;28;20272;-41
2024/03/07 02:18:38;;;;;;;0.00;0.00;;;25.70;33.30;;;;;;5069326;28;20678;-42
2024/03/07 02:21:12;;;;;;;0.00;0.00;;;25.80;33.30;;;;;;5067178;28;20215;-42
2024/03/07 02:23:43;;;;;;;0.00;0.00;;;25.80;33.30;;;;;;5068470;28;20918;-42
2024/03/07 02:26:14;;;;;;;0.00;0.00;;;25.80;33.20;;;;;;5061525;28;20626;-41
2024/03/07 02:28:44;;;;;;;0.00;0.00;;;25.90;32.90;;;;;;5058689;28;20234;-43
2024/03/07 02:31:15;;;;;;;0.00;0.00;;;25.90;32.90;;;;;;5058166;28;20208;-41
2024/03/07 02:33:46;;;;;;;0.00;0.00;;;25.90;32.90;;;;;;5068010;28;20682;-41
2024/03/07 02:36:18;;;;;;;0.00;0.00;;;25.90;32.80;;;;;;5066791;28;20240;-42
2024/03/07 02:38:49;;;;;;;0.00;0.00;;;26.00;32.60;;;;;;5065849;28;20218;-41
2024/03/07 02:41:20;;;;;;;0.00;0.00;;;26.00;32.30;;;;;;5071141;28;20697;-40
2024/03/07 02:43:51;;;;;;;0.00;0.00;;;26.00;32.00;;;;;;5069233;28;20186;-42
2024/03/07 02:46:21;;;;;;;0.00;0.00;;;26.10;31.70;;;;;;5071300;28;20539;-40
2024/03/07 02:48:52;;;;;;;0.00;0.00;;;26.10;31.70;;;;;;5074104;28;20241;-44
2024/03/07 02:51:25;;;;;;;0.00;0.00;;;26.10;32.40;;;;;;5071982;28;20578;-40
2024/03/07 02:53:55;;;;;;;0.00;0.00;;;26.20;31.70;;;;;;5071647;28;20190;-44
2024/03/07 02:56:26;;;;;;;0.00;0.00;;;26.20;31.60;;;;;;5071422;28;20654;-41
2024/03/07 02:58:56;;;;;;;0.00;0.00;;;26.20;31.70;;;;;;5072705;28;20256;-42
2024/03/07 03:01:27;;;;;;;0.00;0.00;;;26.20;31.80;;;;;;5071339;28;20218;-41
2024/03/07 03:03:58;;;;;;;0.00;0.00;;;26.20;32.00;;;;;;5071755;28;20206;-41
2024/03/07 03:06:31;;;;;;;0.00;0.00;;;26.30;32.20;;;;;;5071579;28;20271;-43
2024/03/07 03:09:02;;;;;;;0.00;0.00;;;26.30;32.30;;;;;;5071851;28;20813;-40
2024/03/07 03:11:32;;;;;;;0.00;0.00;;;26.30;32.30;;;;;;5070990;28;20214;-41
2024/03/07 03:14:03;;;;;;;0.00;0.00;;;26.40;32.40;;;;;;5071467;28;20221;-41
2024/03/07 03:16:34;;;;;;;0.00;0.00;;;26.40;32.40;;;;;;5070984;28;20252;-40
2024/03/07 03:19:05;;;;;;;0.00;0.00;;;26.50;32.40;;;;;;5071425;28;20212;-42
2024/03/07 03:21:38;;;;;;;0.00;0.00;;;26.50;32.30;;;;;;5071461;28;20215;-41
2024/03/07 03:24:09;;;;;;;0.00;0.00;;;26.50;32.20;;;;;;5071490;28;20293;-40
2024/03/07 03:26:40;;;;;;;0.00;0.00;;;26.60;32.30;;;;;;5071449;28;20194;-40
2024/03/07 03:29:11;;;;;;;0.00;0.00;;;26.60;32.30;;;;;;5071659;28;20222;-40
2024/03/07 03:31:42;;;;;;;0.00;0.00;;;26.60;32.30;;;;;;5071799;28;20214;-41
2024/03/07 03:34:13;;;;;;;0.00;0.00;;;26.60;32.50;;;;;;5071796;28;20202;-41
2024/03/07 03:36:45;;;;;;;0.00;0.00;;;26.70;32.40;;;;;;5071251;28;20673;-42
2024/03/07 03:39:16;;;;;;;0.00;0.00;;;26.70;32.40;;;;;;5071563;28;20199;-41
2024/03/07 03:41:46;;;;;;;0.00;0.00;;;26.80;32.60;;;;;;5071138;28;20244;-47
2024/03/07 03:44:17;;;;;;;0.00;0.00;;;26.80;32.90;;;;;;5071167;28;20195;-42
2024/03/07 03:46:49;;;;;;;0.00;0.00;;;26.80;32.80;;;;;;5051529;28;20256;-41
2024/03/07 03:49:19;;;;;;;0.00;0.00;;;26.90;32.80;;;;;;5050700;28;20227;-45
2024/03/07 03:51:53;;;;;;;0.00;0.00;;;26.90;32.90;;;;;;5051145;28;20218;-44
2024/03/07 03:54:23;;;;;;;0.00;0.00;;;26.90;32.90;;;;;;5055656;28;20221;-41
2024/03/07 03:56:54;;;;;;;0.00;0.00;;;26.90;32.80;;;;;;5071189;28;20589;-41
2024/03/07 03:59:24;;;;;;;0.00;0.00;;;26.90;32.90;;;;;;5071563;28;20195;-41
2024/03/07 04:01:55;;;;;;;0.00;0.00;;;27.00;33.10;;;;;;5070834;28;20217;-42
2024/03/07 04:04:26;;;;;;;0.00;0.00;;;27.00;33.20;;;;;;5070318;28;20206;-41
2024/03/07 04:06:58;;;;;;;0.00;0.00;;;27.00;33.30;;;;;;5071190;28;20229;-41
2024/03/07 04:09:31;;;;;;;0.00;0.00;;;27.00;33.40;;;;;;5071066;28;20237;-42
2024/03/07 04:12:01;;;;;;;0.00;0.00;;;27.00;33.40;;;;;;5070938;28;20253;-43
2024/03/07 04:14:33;;;;;;;0.00;0.00;;;27.10;33.40;;;;;;5070474;28;20206;-41
2024/03/07 04:17:03;;;;;;;0.00;0.00;;;27.10;33.20;;;;;;5071090;28;20191;-41
2024/03/07 04:19:36;;;;;;;0.00;0.00;;;27.10;33.20;;;;;;5071323;28;20195;-41
2024/03/07 04:22:08;;;;;;;0.00;0.00;;;27.10;33.30;;;;;;5071397;28;20221;-42
2024/03/07 04:24:40;;;;;;;0.00;0.00;;;27.10;33.10;;;;;;5070551;28;20194;-41
2024/03/07 04:27:10;;;;;;;0.00;0.00;;;27.10;33.10;;;;;;5071070;28;20218;-41
2024/03/07 04:29:41;;;;;;;0.00;0.00;;;27.10;33.10;;;;;;5074724;28;20275;-41
2024/03/07 04:32:12;;;;;;;0.00;0.00;;;27.10;33.00;;;;;;5074811;28;20287;-41
2024/03/07 04:34:42;;;;;;;0.00;0.00;;;27.10;33.00;;;;;;5074857;28;20205;-41
2024/03/07 04:37:15;;;;;;;0.00;0.00;;;27.10;33.00;;;;;;5074594;28;20569;-41
2024/03/07 04:39:45;;;;;;;0.00;0.00;;;27.20;33.00;;;;;;5074232;28;20670;-41
2024/03/07 04:42:16;;;;;;;0.00;0.00;;;27.20;33.00;;;;;;5074690;28;20663;-42
2024/03/07 04:44:47;;;;;;;0.00;0.00;;;27.20;33.00;;;;;;5079306;28;20217;-41
2024/03/07 04:47:17;;;;;;;0.00;0.00;;;27.20;33.00;;;;;;5075194;28;20249;-42
2024/03/07 04:49:48;;;;;;;0.00;0.00;;;27.20;32.90;;;;;;5074392;28;20226;-42
2024/03/07 04:52:20;;;;;;;0.00;0.00;;;27.30;33.20;;;;;;5074626;28;20233;-41
2024/03/07 04:54:51;;;;;;;0.00;0.00;;;27.30;33.30;;;;;;5074232;28;20210;-41
2024/03/07 04:57:21;;;;;;;0.00;0.00;;;27.30;33.40;;;;;;5076912;28;20264;-41
2024/03/07 04:59:52;;;;;;;0.00;0.00;;;27.30;33.20;;;;;;5075242;28;20260;-42
2024/03/07 05:02:23;;;;;;;0.00;0.00;;;27.30;33.20;;;;;;5074877;28;20658;-41
2024/03/07 05:04:54;;;;;;;0.00;0.00;;;27.40;33.30;;;;;;5073337;28;20244;-41
2024/03/07 05:07:26;;;;;;;0.00;0.00;;;27.40;34.00;;;;;;5073946;28;20572;-41
2024/03/07 05:09:57;;;;;;;0.00;0.00;;;27.40;33.50;;;;;;5073761;28;20222;-42
2024/03/07 05:12:27;;;;;;;0.00;0.00;;;27.40;33.60;;;;;;5073813;28;20199;-41
2024/03/07 05:14:58;;;;;;;0.00;0.00;;;27.40;33.60;;;;;;5073283;28;20555;-41
2024/03/07 05:17:29;;;;;;;0.00;0.00;;;27.50;33.80;;;;;;5073300;28;20237;-42
2024/03/07 05:19:59;;;;;;;0.00;0.00;;;27.50;33.90;;;;;;5073265;28;20206;-44
2024/03/07 05:22:32;;;;;;;0.00;0.00;;;27.50;33.90;;;;;;5074015;28;20195;-41
2024/03/07 05:25:05;;;;;;;0.00;0.00;;;27.50;33.60;;;;;;5073726;28;20285;-41
2024/03/07 05:27:36;;;;;;;0.00;0.00;;;27.50;33.80;;;;;;5073726;28;20296;-42
2024/03/07 05:30:11;;;;;;;0.00;0.00;;;27.60;33.90;;;;;;5073300;28;20686;-41
2024/03/07 05:32:42;;;;;;;0.00;0.00;;;27.50;33.90;;;;;;5073576;28;20197;-41
2024/03/07 05:35:13;;;;;;;0.00;0.00;;;27.50;33.90;;;;;;5073698;28;20209;-41
2024/03/07 05:37:47;;;;;;;0.00;0.00;;;27.60;34.00;;;;;;5074000;28;20253;-43
2024/03/07 05:40:17;;;;;;;0.00;0.00;;;27.60;33.90;;;;;;5072755;28;20349;-40
2024/03/07 05:42:48;;;;;;;0.00;0.00;;;27.60;33.90;;;;;;5072905;28;20214;-41
2024/03/07 05:45:19;;;;;;;0.00;0.00;;;27.60;34.00;;;;;;5072501;28;20179;-41
2024/03/07 05:47:50;;;;;;;0.00;0.00;;;27.60;33.90;;;;;;5073583;28;20191;-41
2024/03/07 05:50:21;;;;;;;0.00;0.00;;;27.60;34.00;;;;;;5073079;28;20234;-41
2024/03/07 05:52:53;;;;;;;0.00;0.00;;;27.60;34.10;;;;;;5072622;28;20187;-41
2024/03/07 05:55:24;;;;;;;0.00;0.00;;;27.70;34.10;;;;;;5073319;28;20198;-44
2024/03/07 05:57:54;;;;;;;0.00;0.00;;;27.70;34.10;;;;;;5073327;28;20195;-40
2024/03/07 06:00:26;;;;;;;0.00;0.00;;;27.60;34.10;;;;;;5072599;28;20211;-43
2024/03/07 06:02:57;;;;;;;0.00;0.00;;;27.60;34.00;;;;;;5073460;28;20197;-40
2024/03/07 06:05:28;;;;;;;0.00;0.00;;;27.60;34.00;;;;;;5073508;28;20328;-43
2024/03/07 06:08:00;;;;;;;0.00;0.00;;;27.60;33.90;;;;;;5072717;28;20214;-42
2024/03/07 06:10:31;;;;;;;0.00;0.00;;;27.60;33.80;;;;;;5072714;28;20311;-41
2024/03/07 06:13:01;;;;;;;0.00;0.00;;;27.70;33.80;;;;;;5073103;28;20248;-40
2024/03/07 06:15:32;;;;;;;0.00;0.00;;;27.70;33.70;;;;;;5072679;28;20194;-41
2024/03/07 06:18:03;;;;;;;0.00;0.00;;;27.60;33.60;;;;;;5073166;28;20190;-40
2024/03/07 06:20:35;;;;;;;0.00;0.00;;;27.60;33.60;;;;;;5072963;28;20223;-41
2024/03/07 06:23:08;;;;;;;0.00;0.00;;;27.60;33.70;;;;;;5073224;28;20607;-40
2024/03/07 06:25:47;;;;;;;0.00;0.00;;;27.60;33.80;;;;;;5072921;28;20203;-41
2024/03/07 06:28:18;;;;;;;0.00;0.00;;;27.50;33.90;;;;;;5072924;28;20194;-40
2024/03/07 06:30:49;;;;;;;0.00;0.00;;;27.50;33.80;;;;;;5072473;28;20287;-40
2024/03/07 06:33:20;;;;;;;0.00;0.00;;;27.50;33.90;;;;;;5072946;28;20190;-41
2024/03/07 06:35:51;;;;;;;0.00;0.00;;;27.50;34.00;;;;;;5072537;28;20198;-40
2024/03/07 06:38:23;;;;;;;0.00;0.00;;;27.50;33.90;;;;;;5079206;28;20638;-42
2024/03/07 06:40:54;;;;;;;0.00;0.00;;;27.50;34.00;;;;;;5092922;28;20222;-40
2024/03/07 06:43:25;;;;;;;0.00;0.00;;;27.50;34.00;;;;;;5093016;28;20194;-41
2024/03/07 06:45:56;;;;;;;0.00;0.00;;;27.40;34.00;;;;;;5092479;28;20194;-40
2024/03/07 06:48:28;;;;;;;0.00;0.00;;;27.40;34.00;;;;;;5092502;28;20597;-40
2024/03/07 06:50:58;;;;;;;0.00;0.00;;;27.40;33.90;;;;;;5090223;28;20225;-40
2024/03/07 06:53:30;;;;;;;0.00;0.00;;;27.40;33.90;;;;;;5091662;28;20194;-40
2024/03/07 06:56:01;;;;;;;0.00;0.00;;;27.40;33.90;;;;;;5073194;28;20607;-40
2024/03/07 06:58:32;;;;;;;0.00;0.00;;;27.30;33.80;;;;;;5074553;28;20222;-42
2024/03/07 07:01:06;;;;;;;0.00;0.00;;;27.30;33.90;;;;;;5071844;28;20215;-40
2024/03/07 07:03:37;;;;;;;0.00;0.00;;;27.20;33.80;;;;;;5071850;28;20190;-41
2024/03/07 07:06:08;;;;;;;0.00;0.00;;;27.20;34.50;;;;;;5071984;28;20207;-40
2024/03/07 07:08:40;;;;;;;0.00;0.00;;;27.20;34.00;;;;;;5072119;28;20198;-41
2024/03/07 07:11:11;;;;;;;0.00;0.00;;;27.20;34.00;;;;;;5071763;28;20238;-39
2024/03/07 07:13:42;;;;;;;0.00;0.00;;;27.10;33.90;;;;;;5071248;28;20195;-40
2024/03/07 07:16:12;;;;;;;0.00;0.00;;;27.20;34.10;;;;;;5071310;28;20248;-40
2024/03/07 07:18:43;;;;;;;0.00;0.00;;;27.10;34.30;;;;;;5071384;28;20195;-41
2024/03/07 07:21:15;;;;;;;0.00;0.00;;;27.10;34.10;;;;;;5071498;28;20367;-40
2024/03/07 07:23:48;;;;;;;0.00;0.00;;;27.10;34.10;;;;;;5071181;28;20191;-41
2024/03/07 07:26:18;;;;;;;0.00;0.00;;;27.10;34.20;;;;;;5071373;28;20199;-40
2024/03/07 07:28:50;;;;;;;0.00;0.00;;;27.00;34.30;;;;;;5070838;28;20246;-44
2024/03/07 07:31:21;;;;;;;0.00;0.00;;;27.00;34.30;;;;;;5071296;28;20644;-40
2024/03/07 07:33:51;;;;;;;0.00;0.00;;;27.00;34.30;;;;;;5071896;28;20202;-44
2024/03/07 07:36:22;;;;;;;0.00;0.00;;;27.00;34.40;;;;;;5064479;28;20202;-43
2024/03/07 07:38:55;;;;;;;0.00;0.00;;;27.00;34.40;;;;;;5067850;28;20701;-43
2024/03/07 07:41:25;;;;;;;0.00;0.00;;;27.00;34.40;;;;;;5067093;28;20226;-40
2024/03/07 07:43:57;;;;;;;0.00;0.00;;;27.00;34.30;;;;;;5066948;28;20260;-42
2024/03/07 07:46:27;;;;;;;0.00;0.00;;;26.90;34.20;;;;;;5067748;28;20205;-40
2024/03/07 07:48:58;;;;;;;0.00;0.00;;;26.90;34.20;;;;;;5067248;28;20968;-47
2024/03/07 07:51:29;;;;;;;0.00;0.00;;;26.90;34.20;;;;;;5068043;28;20238;-47
2024/03/07 07:54:02;;;;;;;0.00;0.00;;;26.80;34.20;;;;;;5067141;28;20229;-45
2024/03/07 07:56:32;;;;;;;0.00;0.00;;;26.80;34.10;;;;;;5063140;28;20206;-44
2024/03/07 07:59:04;;;;;;;0.00;0.00;;;26.80;34.20;;;;;;5067715;28;20229;-48
2024/03/07 08:01:36;;;;;;;0.00;0.00;;;26.70;34.10;;;;;;5066805;28;20215;-44
2024/03/07 08:04:09;;;;;;;0.00;0.00;;;26.70;34.10;;;;;;5068355;28;20202;-44
2024/03/07 08:06:40;;;;;;;0.00;0.00;;;26.70;34.10;;;;;;5067400;28;20210;-45
2024/03/07 08:09:16;;;;;;;0.00;0.00;;;26.70;34.10;;;;;;5067766;28;20199;-42
2024/03/07 08:11:49;;;;;;;0.00;0.00;;;26.60;34.10;;;;;;5066783;28;20232;-41
2024/03/07 08:14:20;;;;;;;0.00;0.00;;;26.60;34.20;;;;;;5066168;28;20289;-43
2024/03/07 08:16:53;;;;;;;0.00;0.00;;;26.60;34.30;;;;;;5066932;28;20195;-45
2024/03/07 08:19:24;;;;;;;0.05;0.05;;;26.50;34.20;;;;;;5067711;28;20202;-39
2024/03/07 08:21:54;;;;;;;0.00;0.00;;;26.50;34.20;;;;;;5067551;28;20768;-40
2024/03/07 08:24:27;;;;;;;0.00;0.00;;;26.50;34.30;;;;;;5066398;28;20941;-40
2024/03/07 08:26:58;;;;;;;0.00;0.00;;;26.50;34.30;;;;;;5066647;28;20205;-44
2024/03/07 08:29:29;;;;;;;0.00;0.00;;;26.50;34.30;;;;;;5066029;28;20708;-40
2024/03/07 08:31:59;;;;;;;0.00;0.00;;;26.40;34.20;;;;;;5067929;28;20230;-44
2024/03/07 08:34:30;;;;;;;0.00;0.00;;;26.40;34.20;;;;;;5066683;28;20243;-45
2024/03/07 08:37:02;;;;;;;0.00;0.00;;;26.40;34.30;;;;;;5067788;28;20590;-48
2024/03/07 08:39:36;;;;;;;0.00;0.00;;;26.40;34.30;;;;;;5066681;28;20203;-43
2024/03/07 08:42:06;;;;;;;0.00;0.00;;;26.30;34.30;;;;;;5065855;28;20223;-41
2024/03/07 08:44:37;;;;;;;0.00;0.00;;;26.30;34.30;;;;;;5066843;28;20260;-43
2024/03/07 08:47:09;;;;;;;0.00;0.00;;;26.20;34.40;;;;;;5061039;28;20201;-45
2024/03/07 08:49:40;;;;;;;0.00;0.00;;;26.20;34.40;;;;;;5067500;28;20691;-40
2024/03/07 08:52:11;;;;;;;0.00;0.00;;;26.20;34.50;;;;;;5066265;28;20237;-49
2024/03/07 08:54:45;;;;;;;0.00;0.00;;;26.20;34.50;;;;;;5053249;28;20260;-45
2024/03/07 08:57:16;;;;;;;0.00;0.00;;;26.20;34.60;;;;;;5066595;28;20198;-44
2024/03/07 08:59:47;;;;;;;0.00;0.00;;;26.20;34.60;;;;;;5068501;28;20197;-50
2024/03/07 09:02:18;;;;;;;0.00;0.00;;;26.10;34.70;;;;;;5067011;28;20218;-47
2024/03/07 09:04:49;;;;;;;0.00;0.00;;;26.10;34.90;;;;;;5067172;28;20230;-49
2024/03/07 09:07:20;;;;;;;0.00;0.00;;;26.10;34.80;;;;;;5067148;28;20207;-47
2024/03/07 09:09:52;;;;;;;0.00;0.00;;;26.10;34.80;;;;;;5066885;28;20632;-43
2024/03/07 09:12:25;;;;;;;0.00;0.00;;;26.10;34.90;;;;;;5066522;28;20640;-48
2024/03/07 09:14:56;;;;;;;0.00;0.00;;;26.10;34.90;;;;;;5068411;28;20264;-44
2024/03/07 09:17:26;;;;;;;0.00;0.00;;;26.10;35.00;;;;;;5070796;28;20217;-46
2024/03/07 09:19:57;;;;;;;0.00;0.00;;;26.00;35.00;;;;;;5070361;28;20199;-46
2024/03/07 09:22:29;;;;;;;0.00;0.00;;;26.00;35.00;;;;;;5070820;28;20202;-46
2024/03/07 09:25:01;;;;;;;0.00;0.00;;;26.00;35.00;;;;;;5070917;28;20207;-43
2024/03/07 09:27:32;;;;;;;0.00;0.00;;;26.00;35.10;;;;;;5069612;28;20303;-48
2024/03/07 09:30:03;;;;;;;0.00;0.00;;;25.90;35.00;;;;;;5070115;28;20514;-47
2024/03/07 09:32:34;;;;;;;0.00;0.00;;;26.00;35.10;;;;;;5070171;28;20213;-44
2024/03/07 09:35:07;;;;;;;0.00;0.00;;;25.90;35.10;;;;;;5069886;28;20203;-40
2024/03/07 09:37:37;;;;;;;0.00;0.00;;;25.90;35.10;;;;;;5070163;28;20295;-46
2024/03/07 09:40:11;;;;;;;0.00;0.00;;;25.90;35.10;;;;;;5070597;28;20459;-44
2024/03/07 09:42:47;;;;;;;0.00;0.00;;;25.90;35.20;;;;;;5070114;28;20598;-40
2024/03/07 09:45:19;;;;;;;0.00;0.00;;;25.90;35.20;;;;;;5069418;28;20191;-42
2024/03/07 09:47:51;;;;;;;0.00;0.00;;;25.90;35.20;;;;;;5070018;28;20198;-44
2024/03/07 09:50:23;;;;;;;0.00;0.00;;;25.90;35.30;;;;;;5070201;28;20230;-44
2024/03/07 09:52:54;;;;;;;0.00;0.00;;;25.80;35.30;;;;;;5070158;28;20238;-40
2024/03/07 09:55:27;;;;;;;0.00;0.00;;;25.80;35.30;;;;;;5069602;28;20229;-42
2024/03/07 09:58:00;;;;;;;0.00;0.00;;;25.80;35.40;;;;;;5070354;28;20207;-47
2024/03/07 10:00:33;;;;;;;0.00;0.00;;;25.80;35.40;;;;;;5068629;28;20229;-45
2024/03/07 10:03:08;;;;;;;0.00;0.00;;;25.80;35.40;;;;;;5070314;28;20231;-49
2024/03/07 10:05:40;;;;;;;0.00;0.00;;;25.70;35.40;;;;;;5069243;28;20198;-48
2024/03/07 10:08:12;;;;;;;0.00;0.00;;;25.70;35.50;;;;;;5069494;28;20203;-45
2024/03/07 10:10:47;;;;;;;0.00;0.00;;;25.70;35.50;;;;;;5068567;28;20232;-45
2024/03/07 10:13:18;;;;;;;0.00;0.00;;;25.70;35.60;;;;;;5069012;28;20255;-39
2024/03/07 10:15:48;;;;;;;0.00;0.00;;;25.70;35.60;;;;;;5070098;28;20248;-48
2024/03/07 10:18:22;;;;;;;0.00;0.00;;;25.70;35.60;;;;;;5069439;28;20245;-48
2024/03/07 10:20:56;;;;;;;0.00;0.00;;;25.60;35.50;;;;;;5070070;28;20222;-49
2024/03/07 10:23:26;;;;;;;0.00;0.00;;;25.70;35.60;;;;;;5069215;28;20282;-49
2024/03/07 10:25:59;;;;;;;0.00;0.00;;;25.60;35.60;;;;;;5069042;28;20241;-39
2024/03/07 10:28:31;;;;;;;0.00;0.00;;;25.60;35.60;;;;;;5069217;28;20198;-48
2024/03/07 10:31:03;;;;;;;0.03;0.03;;;25.60;35.60;;;;;;5069096;28;20226;-47
2024/03/07 10:33:34;;;;;;;0.00;0.00;;;25.60;35.70;;;;;;5069140;28;20206;-50
2024/03/07 10:36:05;;;;;;;0.00;0.00;;;25.60;35.70;;;;;;5068711;28;20207;-48
2024/03/07 10:38:36;;;;;;;0.00;0.00;;;25.60;35.80;;;;;;5069587;28;20203;-49
2024/03/07 10:41:10;;;;;;;0.00;0.00;;;25.60;35.80;;;;;;5060730;28;20214;-48
2024/03/07 10:43:45;;;;;;;0.00;0.00;;;25.50;35.70;;;;;;5070362;28;20199;-39
2024/03/07 10:46:17;;;;;;;0.00;0.00;;;25.50;35.80;;;;;;5068871;28;20637;-47
2024/03/07 10:48:49;;;;;;;0.00;0.00;;;25.50;35.80;;;;;;5069045;28;20212;-44
2024/03/07 10:51:26;;;;;;;0.00;0.00;;;25.50;35.90;;;;;;5066048;28;20241;-40
2024/03/07 10:54:09;;;;;;;0.00;0.00;;;25.50;35.90;;;;;;5067503;28;20202;-40
2024/03/07 10:56:54;;;;;;;0.00;0.00;;;25.50;36.00;;;;;;5067914;28;20279;-40
2024/03/07 10:59:32;;;;;;;0.00;0.00;;;25.50;36.00;;;;;;5069302;28;20206;-47
2024/03/07 11:02:19;;;;;;;0.00;0.00;;;25.50;36.00;;;;;;5068450;28;20222;-45
2024/03/07 11:04:51;;;;;;;0.00;0.00;;;25.50;36.00;;;;;;5068529;28;20689;-48
2024/03/07 11:07:24;;;;;;;0.00;0.00;;;25.50;36.00;;;;;;5085611;28;20272;-49
2024/03/07 11:09:55;;;;;;;0.00;0.00;;;25.40;36.00;;;;;;5088427;28;20198;-47
2024/03/07 11:18:17;;;;;;;0.00;0.00;;;25.40;36.10;;;;;;5049859;28;20198;-40
2024/03/07 11:20:48;;;;;;;0.00;0.00;;;25.30;36.10;;;;;;5068028;28;20265;-42
2024/03/07 11:23:33;;;;;;;0.00;0.00;;;25.30;36.30;;;;;;5068197;28;20634;-43
2024/03/07 11:26:07;;;;;;;0.00;0.00;;;25.30;36.40;;;;;;5067219;28;20195;-41
2024/03/07 11:28:39;;;;;;;0.00;0.00;;;25.30;36.40;;;;;;5068365;28;20202;-41
2024/03/07 11:31:15;;;;;;;0.00;0.00;;;25.30;36.50;;;;;;5066901;28;20485;-43
2024/03/07 11:34:18;;;;;;;0.00;0.00;;;25.30;37.20;;;;;;5067996;28;20891;-41
2024/03/07 11:36:55;;;;;;;0.00;0.00;;;25.30;36.60;;;;;;5067313;28;20194;-42
2024/03/07 11:39:43;;;;;;;0.00;0.00;;;25.30;36.50;;;;;;5067723;28;20206;-42
2024/03/07 11:42:26;;;;;;;0.00;0.00;;;25.30;36.60;;;;;;5048227;28;20230;-44
2024/03/07 11:45:03;;;;;;;0.00;0.00;;;25.30;36.60;;;;;;5047736;28;20191;-45
2024/03/07 11:47:40;;;;;;;0.00;0.00;;;25.30;36.70;;;;;;5047551;28;20205;-44
2024/03/07 11:50:14;;;;;;;0.00;0.00;;;25.20;36.70;;;;;;5049854;28;20197;-45
2024/03/07 11:52:46;;;;;;;0.00;0.00;;;25.20;36.70;;;;;;5068036;28;20280;-47
2024/03/07 11:55:18;;;;;;;0.00;0.00;;;25.30;36.80;;;;;;5067621;28;20213;-46
2024/03/07 11:57:50;;;;;;;0.00;0.00;;;25.20;36.70;;;;;;5067726;28;20190;-44
2024/03/07 12:00:25;;;;;;;0.00;0.00;;;25.20;36.70;;;;;;5067384;28;20229;-47
2024/03/07 12:02:58;;;;;;;0.00;0.00;;;25.20;36.70;;;;;;5067844;28;20213;-47
2024/03/07 12:05:33;;;;;;;0.00;0.00;;;25.20;36.80;;;;;;5069577;28;20568;-45
2024/03/07 12:08:05;;;;;;;0.00;0.00;;;25.10;36.80;;;;;;5070675;28;20552;-45
2024/03/07 12:10:38;;;;;;;0.00;0.00;;;25.20;36.90;;;;;;5069782;28;20210;-46
2024/03/07 12:13:11;;;;;;;0.00;0.00;;;25.10;36.80;;;;;;5067722;28;20202;-46
2024/03/07 12:15:42;;;;;;;0.00;0.00;;;25.10;36.80;;;;;;5069797;28;20306;-46
2024/03/07 12:18:14;;;;;;;0.00;0.00;;;25.10;36.80;;;;;;5068397;28;20495;-50
2024/03/07 12:20:53;;;;;;;0.00;0.00;;;25.10;36.90;;;;;;5070080;28;20298;-48
2024/03/07 12:23:27;;;;;;;0.00;0.00;;;25.10;36.90;;;;;;5069661;28;20187;-42
2024/03/07 12:26:07;;;;;;;0.00;0.00;;;25.10;37.60;;;;;;5069980;28;20191;-48
2024/03/07 12:28:38;;;;;;;0.00;0.00;;;25.10;37.00;;;;;;5069595;28;20190;-46
2024/03/07 12:31:16;;;;;;;0.00;0.00;;;25.10;37.10;;;;;;5068106;28;20214;-46
2024/03/07 12:33:51;;;;;;;0.00;0.00;;;25.10;37.10;;;;;;5070324;28;20193;-44
2024/03/07 12:36:34;;;;;;;0.00;0.00;;;25.10;37.10;;;;;;5070063;28;20186;-44
2024/03/07 12:39:24;;;;;;;0.00;0.00;;;25.00;37.10;;;;;;5069928;28;20219;-50
2024/03/07 12:41:55;;;;;;;0.00;0.00;;;25.00;37.10;;;;;;5068861;28;20221;-50
2024/03/07 12:44:25;;;;;;;0.00;0.00;;;25.10;37.10;;;;;;5070493;28;20193;-49
2024/03/07 12:46:57;;;;;;;0.00;0.00;;;25.00;37.10;;;;;;5070280;28;20199;-49
2024/03/07 12:49:28;;;;;;;0.00;0.00;;;25.00;37.10;;;;;;5069765;28;20634;-45
2024/03/07 12:52:01;;;;;;;0.00;0.00;;;25.00;37.10;;;;;;5074831;28;20284;-49
2024/03/07 12:54:32;;;;;;;0.00;0.00;;;25.00;37.20;;;;;;5071801;28;20282;-46
2024/03/07 12:57:05;;;;;;;0.00;0.00;;;25.00;37.20;;;;;;5074114;28;20256;-45
2024/03/07 12:59:37;;;;;;;0.00;0.00;;;25.00;37.30;;;;;;5073056;28;20187;-49
2024/03/07 13:02:08;;;;;;;0.00;0.00;;;24.90;37.30;;;;;;5073484;28;20552;-47
2024/03/07 13:04:39;;;;;;;0.05;0.05;;;25.00;37.30;;;;;;5073796;28;20190;-52
2024/03/07 13:07:11;;;;;;;0.00;0.00;;;24.90;37.30;;;;;;5068141;28;20203;-45
2024/03/07 13:09:48;;;;;;;0.00;0.00;;;24.90;37.30;;;;;;5073852;28;20643;-45
2024/03/07 13:12:18;;;;;;;0.00;0.00;;;24.90;37.30;;;;;;5073596;28;20214;-44
2024/03/07 13:14:49;;;;;;;0.08;0.08;;;24.90;37.30;;;;;;5070378;28;20199;-44
2024/03/07 13:17:20;;;;;;;0.00;0.00;;;24.90;37.40;;;;;;5073175;28;20534;-45
2024/03/07 13:19:59;;;;;;;0.00;0.00;;;24.90;37.40;;;;;;5071369;28;20183;-45